Time;durP1;ratioP1;P1;durP2;ratioP2;P2;SDS_P1;SDS_P2;PMS_P1;PMS_P2;Temp;Humidity;BMP_temperature;BMP_pressure;BME280_temperature;BME280_humidity;BME280_pressure;Samples;Min_cycle;Max_cycle;Signal;HPM_P1;HPM_P2
2021/01/08 00:00:30;;;;;;;26.37;17.97;;;;;;;;;;2073453;28;20181;-53
2021/01/08 00:01:42;;;;;;;24.17;18.03;;;;;;;;;;2073581;28;20838;-54
2021/01/08 00:02:42;;;;;;;24.30;17.23;;;;;;;;;;2068854;28;20756;-57
2021/01/08 00:03:42;;;;;;;27.47;17.53;;;;;;;;;;2073918;28;20169;-53
2021/01/08 00:04:43;;;;;;;25.47;17.93;;;;;;;;;;2073673;28;20171;-57
2021/01/08 00:05:43;;;;;;;26.43;17.80;;;;;;;;;;2073476;28;20184;-58
2021/01/08 00:06:43;;;;;;;23.70;17.63;;;;;;;;;;2073685;28;20165;-59
2021/01/08 00:07:44;;;;;;;22.27;16.10;;;;;;;;;;2073208;28;20176;-56
2021/01/08 00:08:44;;;;;;;24.60;16.93;;;;;;;;;;2073826;28;20178;-54
2021/01/08 00:09:45;;;;;;;23.03;17.90;;;;;;;;;;2073885;28;20191;-56
2021/01/08 00:10:47;;;;;;;26.67;16.83;;;;;;;;;;2064765;28;20540;-58
2021/01/08 00:11:52;;;;;;;23.10;16.53;;;;;;;;;;2062501;28;20180;-53
2021/01/08 00:12:52;;;;;;;23.63;15.97;;;;;;;;;;2075579;28;20190;-55
2021/01/08 00:13:53;;;;;;;20.93;15.67;;;;;;;;;;2073144;28;20181;-53
2021/01/08 00:14:53;;;;;;;24.00;16.43;;;;;;;;;;2073687;28;20312;-59
2021/01/08 00:15:54;;;;;;;26.30;17.67;;;;;;;;;;2072808;28;20251;-58
2021/01/08 00:16:54;;;;;;;24.00;17.07;;;;;;;;;;2073434;28;20177;-58
2021/01/08 00:17:54;;;;;;;22.20;16.77;;;;;;;;;;2064492;28;20673;-51
2021/01/08 00:18:54;;;;;;;22.47;17.03;;;;;;;;;;2064529;28;20288;-52
2021/01/08 00:19:55;;;;;;;22.40;16.17;;;;;;;;;;2073585;28;20197;-57
2021/01/08 00:20:55;;;;;;;24.03;16.57;;;;;;;;;;2073324;28;20592;-57
2021/01/08 00:21:56;;;;;;;21.27;16.10;;;;;;;;;;2073296;28;20180;-60
2021/01/08 00:22:56;;;;;;;25.27;17.10;;;;;;;;;;2072799;28;20169;-57
2021/01/08 00:23:56;;;;;;;23.17;16.23;;;;;;;;;;2073436;28;20552;-55
2021/01/08 00:24:56;;;;;;;23.33;16.40;;;;;;;;;;2073766;28;20188;-58
2021/01/08 00:25:56;;;;;;;23.00;15.87;;;;;;;;;;2073124;28;20186;-56
2021/01/08 00:27:01;;;;;;;23.73;16.77;;;;;;;;;;2072743;28;20169;-58
2021/01/08 00:28:01;;;;;;;21.97;15.10;;;;;;;;;;2072548;28;20172;-52
2021/01/08 00:29:02;;;;;;;24.47;16.70;;;;;;;;;;2073328;28;20426;-53
2021/01/08 00:30:02;;;;;;;22.13;16.43;;;;;;;;;;2072385;28;20201;-56
2021/01/08 00:31:02;;;;;;;22.33;16.23;;;;;;;;;;2072777;28;20192;-57
2021/01/08 00:32:03;;;;;;;22.17;16.53;;;;;;;;;;2073153;28;20268;-57
2021/01/08 00:33:03;;;;;;;23.43;15.77;;;;;;;;;;2073625;28;20177;-57
2021/01/08 00:34:04;;;;;;;21.33;16.60;;;;;;;;;;2073183;28;20207;-52
2021/01/08 00:35:04;;;;;;;21.77;15.83;;;;;;;;;;2073831;28;20741;-52
2021/01/08 00:36:05;;;;;;;23.97;17.43;;;;;;;;;;2072572;28;20196;-59
2021/01/08 00:37:05;;;;;;;20.20;15.77;;;;;;;;;;2073105;28;20252;-53
2021/01/08 00:38:06;;;;;;;22.57;17.07;;;;;;;;;;2073201;28;20189;-55
2021/01/08 00:39:06;;;;;;;23.23;16.20;;;;;;;;;;2073609;28;20173;-54
2021/01/08 00:40:07;;;;;;;23.73;16.40;;;;;;;;;;2088824;22;20218;-52
2021/01/08 00:41:07;;;;;;;22.27;15.37;;;;;;;;;;2096262;28;20183;-55
2021/01/08 00:42:10;;;;;;;24.87;17.27;;;;;;;;;;2096704;28;20205;-55
2021/01/08 00:43:10;;;;;;;24.87;16.90;;;;;;;;;;2097573;28;20173;-53
2021/01/08 00:44:11;;;;;;;24.73;18.10;;;;;;;;;;2088096;28;20194;-52
2021/01/08 00:45:11;;;;;;;22.43;16.77;;;;;;;;;;2084148;28;20200;-53
2021/01/08 00:46:12;;;;;;;21.97;16.10;;;;;;;;;;2073061;28;20633;-55
2021/01/08 00:47:12;;;;;;;25.47;17.73;;;;;;;;;;2076923;28;20196;-56
2021/01/08 00:48:12;;;;;;;24.10;17.27;;;;;;;;;;2088580;28;20657;-52
2021/01/08 00:49:13;;;;;;;25.60;18.70;;;;;;;;;;2084450;28;20251;-54
2021/01/08 00:50:13;;;;;;;26.37;17.97;;;;;;;;;;2089972;28;20207;-56
2021/01/08 00:51:14;;;;;;;23.10;16.67;;;;;;;;;;2085649;28;20207;-54
2021/01/08 00:52:14;;;;;;;25.07;17.83;;;;;;;;;;2081272;28;20180;-55
2021/01/08 00:53:14;;;;;;;24.23;17.13;;;;;;;;;;2068064;28;20178;-52
2021/01/08 00:54:17;;;;;;;27.53;17.13;;;;;;;;;;2069567;28;20227;-53
2021/01/08 00:55:24;;;;;;;25.27;17.13;;;;;;;;;;2063380;28;20705;-55
2021/01/08 00:56:31;;;;;;;26.70;18.60;;;;;;;;;;2079126;28;20819;-53
2021/01/08 00:57:39;;;;;;;23.50;17.47;;;;;;;;;;2077860;28;20164;-52
2021/01/08 00:58:40;;;;;;;25.33;17.30;;;;;;;;;;2072929;28;20695;-52
2021/01/08 00:59:40;;;;;;;25.13;18.07;;;;;;;;;;2080300;28;20252;-57
2021/01/08 01:00:40;;;;;;;25.70;17.37;;;;;;;;;;2080581;28;20199;-56
2021/01/08 01:01:41;;;;;;;27.60;18.27;;;;;;;;;;2072266;28;20201;-53
2021/01/08 01:02:42;;;;;;;26.77;17.93;;;;;;;;;;2074220;28;20204;-53
2021/01/08 01:03:42;;;;;;;29.00;18.80;;;;;;;;;;2089254;28;20287;-54
2021/01/08 01:04:42;;;;;;;26.10;18.07;;;;;;;;;;2080890;28;20191;-55
2021/01/08 01:05:43;;;;;;;25.70;17.60;;;;;;;;;;2081179;28;20177;-56
2021/01/08 01:06:43;;;;;;;27.93;18.97;;;;;;;;;;2089891;28;20170;-57
2021/01/08 01:07:43;;;;;;;25.00;18.03;;;;;;;;;;2089416;28;20597;-54
2021/01/08 01:08:43;;;;;;;31.00;19.30;;;;;;;;;;2089890;28;20188;-53
2021/01/08 01:09:43;;;;;;;27.67;18.17;;;;;;;;;;2080695;28;20227;-54
2021/01/08 01:10:44;;;;;;;29.13;18.17;;;;;;;;;;2081180;28;20183;-54
2021/01/08 01:11:44;;;;;;;28.13;17.97;;;;;;;;;;2089710;28;20197;-56
2021/01/08 01:12:44;;;;;;;28.57;18.67;;;;;;;;;;2089568;28;20167;-53
2021/01/08 01:13:45;;;;;;;28.47;19.83;;;;;;;;;;2089792;28;20171;-56
2021/01/08 01:14:45;;;;;;;25.77;18.30;;;;;;;;;;2089140;28;20200;-55
2021/01/08 01:15:46;;;;;;;25.73;17.60;;;;;;;;;;2081386;28;20291;-54
2021/01/08 01:16:46;;;;;;;23.67;17.50;;;;;;;;;;2081584;28;20270;-53
2021/01/08 01:17:46;;;;;;;25.90;17.30;;;;;;;;;;2083376;28;20175;-53
2021/01/08 01:18:54;;;;;;;25.80;17.23;;;;;;;;;;2089696;28;20199;-52
2021/01/08 01:19:54;;;;;;;22.07;15.77;;;;;;;;;;2089262;28;20585;-53
2021/01/08 01:20:54;;;;;;;22.10;15.97;;;;;;;;;;2089932;28;20255;-53
2021/01/08 01:21:54;;;;;;;23.63;16.33;;;;;;;;;;2089477;28;20698;-51
2021/01/08 01:22:55;;;;;;;21.30;15.93;;;;;;;;;;2089570;28;20558;-52
2021/01/08 01:23:55;;;;;;;21.00;16.03;;;;;;;;;;2089859;28;20186;-55
2021/01/08 01:24:55;;;;;;;21.53;15.20;;;;;;;;;;2081240;28;20183;-56
2021/01/08 01:25:56;;;;;;;24.80;17.17;;;;;;;;;;2078078;28;20269;-55
2021/01/08 01:26:58;;;;;;;21.17;16.00;;;;;;;;;;2080866;28;20251;-55
2021/01/08 01:27:58;;;;;;;22.77;15.37;;;;;;;;;;2083962;28;20243;-53
2021/01/08 01:28:58;;;;;;;22.77;15.53;;;;;;;;;;2084952;28;20590;-54
2021/01/08 01:29:58;;;;;;;19.37;14.37;;;;;;;;;;2088602;28;20187;-54
2021/01/08 01:30:59;;;;;;;18.87;14.10;;;;;;;;;;2088918;28;20168;-51
2021/01/08 01:31:59;;;;;;;19.37;14.23;;;;;;;;;;2084921;28;20195;-52
2021/01/08 01:32:59;;;;;;;23.23;15.53;;;;;;;;;;2077405;28;20184;-52
2021/01/08 01:33:59;;;;;;;19.30;13.70;;;;;;;;;;2077390;28;20181;-54
2021/01/08 01:35:00;;;;;;;19.30;15.07;;;;;;;;;;2081345;28;20621;-54
2021/01/08 01:36:07;;;;;;;18.43;13.13;;;;;;;;;;2089598;28;20178;-55
2021/01/08 01:37:07;;;;;;;19.27;13.43;;;;;;;;;;2085618;28;20176;-52
2021/01/08 01:38:08;;;;;;;19.90;13.43;;;;;;;;;;2081950;28;20184;-52
2021/01/08 01:39:08;;;;;;;20.83;14.10;;;;;;;;;;2085074;28;20168;-53
2021/01/08 01:40:08;;;;;;;21.50;14.13;;;;;;;;;;2085150;28;20758;-55
2021/01/08 01:41:08;;;;;;;17.23;12.40;;;;;;;;;;2075471;28;20263;-53
2021/01/08 01:42:09;;;;;;;16.27;12.60;;;;;;;;;;2080780;28;20547;-54
2021/01/08 01:43:09;;;;;;;19.27;13.73;;;;;;;;;;2087540;28;20758;-53
2021/01/08 01:44:09;;;;;;;18.73;12.27;;;;;;;;;;2076635;28;20180;-52
2021/01/08 01:45:10;;;;;;;16.37;12.93;;;;;;;;;;2076516;28;20581;-52
2021/01/08 01:46:15;;;;;;;18.10;12.80;;;;;;;;;;2080215;28;20672;-53
2021/01/08 01:47:15;;;;;;;18.13;12.87;;;;;;;;;;2075596;28;20638;-55
2021/01/08 01:48:16;;;;;;;19.57;13.13;;;;;;;;;;2083197;28;20176;-53
2021/01/08 01:49:16;;;;;;;17.67;12.13;;;;;;;;;;2088456;28;20179;-54
2021/01/08 01:50:17;;;;;;;18.67;13.00;;;;;;;;;;2089244;28;20230;-53
2021/01/08 01:51:18;;;;;;;16.13;11.40;;;;;;;;;;2088942;28;20182;-53
2021/01/08 01:52:19;;;;;;;17.37;12.40;;;;;;;;;;2089018;28;20584;-53
2021/01/08 01:53:19;;;;;;;17.57;12.77;;;;;;;;;;2083914;28;20172;-52
2021/01/08 01:54:20;;;;;;;18.73;13.40;;;;;;;;;;2086776;28;20617;-55
2021/01/08 01:55:20;;;;;;;15.67;12.00;;;;;;;;;;2084352;28;20586;-54
2021/01/08 01:56:21;;;;;;;17.17;12.00;;;;;;;;;;2080662;28;20172;-52
2021/01/08 01:57:21;;;;;;;14.77;11.93;;;;;;;;;;2066512;28;20177;-52
2021/01/08 01:58:21;;;;;;;19.10;12.80;;;;;;;;;;2073148;28;20689;-55
2021/01/08 01:59:22;;;;;;;15.17;11.37;;;;;;;;;;2087102;28;20179;-56
2021/01/08 02:00:22;;;;;;;14.60;11.27;;;;;;;;;;2078809;28;20283;-58
2021/01/08 02:01:22;;;;;;;16.33;12.03;;;;;;;;;;2075955;28;20177;-58
2021/01/08 02:02:33;;;;;;;16.67;12.33;;;;;;;;;;2088074;28;20208;-55
2021/01/08 02:03:33;;;;;;;17.87;12.13;;;;;;;;;;2083094;28;20172;-53
2021/01/08 02:04:34;;;;;;;15.80;11.17;;;;;;;;;;2089248;28;20778;-53
2021/01/08 02:05:35;;;;;;;15.43;10.77;;;;;;;;;;2075211;28;20608;-55
2021/01/08 02:06:37;;;;;;;15.73;12.00;;;;;;;;;;2081136;28;20172;-53
2021/01/08 02:07:40;;;;;;;14.63;11.47;;;;;;;;;;2088171;28;20164;-53
2021/01/08 02:08:43;;;;;;;15.87;11.47;;;;;;;;;;2084132;28;20180;-55
2021/01/08 02:09:44;;;;;;;17.10;12.17;;;;;;;;;;2082128;28;20709;-53
2021/01/08 02:10:59;;;;;;;15.47;11.90;;;;;;;;;;2089515;28;20262;-55
2021/01/08 02:11:59;;;;;;;14.33;10.87;;;;;;;;;;2081509;28;20625;-54
2021/01/08 02:13:00;;;;;;;17.07;12.13;;;;;;;;;;2073288;28;20192;-55
2021/01/08 02:14:04;;;;;;;18.00;12.30;;;;;;;;;;2064591;28;20293;-53
2021/01/08 02:15:05;;;;;;;15.23;10.83;;;;;;;;;;2073035;28;20189;-53
2021/01/08 02:16:06;;;;;;;14.57;11.47;;;;;;;;;;2076157;28;20251;-52
2021/01/08 02:17:06;;;;;;;15.47;11.67;;;;;;;;;;2079476;28;20184;-56
2021/01/08 02:18:07;;;;;;;15.73;11.60;;;;;;;;;;2078010;28;20219;-53
2021/01/08 02:19:09;;;;;;;15.57;11.03;;;;;;;;;;2077306;28;20231;-56
2021/01/08 02:20:10;;;;;;;14.10;11.63;;;;;;;;;;2088591;28;20203;-54
2021/01/08 02:21:12;;;;;;;17.67;12.03;;;;;;;;;;2085530;28;20163;-53
2021/01/08 02:22:16;;;;;;;13.67;10.37;;;;;;;;;;2087657;28;20178;-53
2021/01/08 02:23:26;;;;;;;15.00;10.70;;;;;;;;;;2084821;28;20175;-53
2021/01/08 02:24:40;;;;;;;19.03;12.07;;;;;;;;;;2081149;28;20203;-53
2021/01/08 02:25:41;;;;;;;13.23;10.17;;;;;;;;;;2085958;28;20191;-52
2021/01/08 02:26:42;;;;;;;20.33;12.33;;;;;;;;;;2089330;28;20263;-55
2021/01/08 02:27:50;;;;;;;16.53;11.53;;;;;;;;;;2081177;28;20645;-53
2021/01/08 02:28:51;;;;;;;16.87;11.37;;;;;;;;;;2088167;28;20206;-53
2021/01/08 02:29:52;;;;;;;15.37;11.27;;;;;;;;;;2084706;28;20365;-54
2021/01/08 02:30:52;;;;;;;15.37;11.30;;;;;;;;;;2080007;28;20177;-55
2021/01/08 02:31:53;;;;;;;13.90;11.70;;;;;;;;;;2078994;28;20183;-53
2021/01/08 02:32:54;;;;;;;16.13;11.20;;;;;;;;;;2081540;28;20172;-55
2021/01/08 02:33:55;;;;;;;14.90;11.00;;;;;;;;;;2081087;28;20247;-54
2021/01/08 02:34:56;;;;;;;14.33;10.77;;;;;;;;;;2081322;28;20188;-53
2021/01/08 02:35:58;;;;;;;15.50;10.73;;;;;;;;;;2089092;28;20432;-56
2021/01/08 02:36:59;;;;;;;14.87;10.97;;;;;;;;;;2086743;28;20184;-51
2021/01/08 02:37:59;;;;;;;14.63;10.83;;;;;;;;;;2083761;28;20179;-52
2021/01/08 02:39:00;;;;;;;14.90;10.60;;;;;;;;;;2088974;28;20183;-53
2021/01/08 02:40:00;;;;;;;16.13;11.87;;;;;;;;;;2089688;28;20199;-53
2021/01/08 02:41:02;;;;;;;12.17;10.37;;;;;;;;;;2088930;28;20166;-55
2021/01/08 02:42:04;;;;;;;13.07;10.70;;;;;;;;;;2085392;28;20207;-56
2021/01/08 02:43:06;;;;;;;15.80;11.73;;;;;;;;;;2084759;28;20408;-56
2021/01/08 02:44:06;;;;;;;14.20;10.70;;;;;;;;;;2087110;28;20189;-54
2021/01/08 02:45:07;;;;;;;12.77;10.33;;;;;;;;;;2081992;28;20184;-56
2021/01/08 02:46:07;;;;;;;14.83;10.83;;;;;;;;;;2085132;28;20196;-54
2021/01/08 02:47:08;;;;;;;14.73;11.13;;;;;;;;;;2090006;28;20730;-52
2021/01/08 02:48:08;;;;;;;15.30;11.57;;;;;;;;;;2079993;28;20169;-56
2021/01/08 02:49:08;;;;;;;14.33;10.33;;;;;;;;;;2079541;28;20185;-57
2021/01/08 02:50:09;;;;;;;14.47;11.43;;;;;;;;;;2089636;28;20200;-56
2021/01/08 02:51:09;;;;;;;13.93;11.30;;;;;;;;;;2093087;28;20155;-56
2021/01/08 02:52:10;;;;;;;15.47;11.50;;;;;;;;;;2089448;28;20173;-56
2021/01/08 02:53:18;;;;;;;15.07;11.03;;;;;;;;;;2084170;28;20169;-56
2021/01/08 02:54:18;;;;;;;13.07;10.50;;;;;;;;;;2085350;28;20183;-56
2021/01/08 02:55:21;;;;;;;17.20;12.10;;;;;;;;;;2088601;28;20216;-55
2021/01/08 02:56:29;;;;;;;13.37;10.70;;;;;;;;;;2085422;28;20170;-55
2021/01/08 02:57:30;;;;;;;12.17;9.83;;;;;;;;;;2083606;28;20176;-55
2021/01/08 02:58:31;;;;;;;12.27;10.83;;;;;;;;;;2093185;28;20416;-56
2021/01/08 02:59:32;;;;;;;13.70;10.47;;;;;;;;;;2084281;28;20180;-56
2021/01/08 03:00:33;;;;;;;14.73;10.97;;;;;;;;;;2082529;28;20189;-55
2021/01/08 03:01:34;;;;;;;13.10;10.50;;;;;;;;;;2089343;28;20710;-57
2021/01/08 03:02:35;;;;;;;13.03;10.37;;;;;;;;;;2092632;28;20249;-56
2021/01/08 03:03:35;;;;;;;13.20;10.57;;;;;;;;;;2081539;28;20168;-55
2021/01/08 03:04:35;;;;;;;12.87;10.13;;;;;;;;;;2084513;28;20165;-56
2021/01/08 03:05:36;;;;;;;11.07;9.53;;;;;;;;;;2085368;28;20621;-55
2021/01/08 03:06:38;;;;;;;12.30;9.73;;;;;;;;;;2085731;28;20182;-56
2021/01/08 03:07:38;;;;;;;12.53;10.00;;;;;;;;;;2091273;28;20210;-54
2021/01/08 03:08:38;;;;;;;12.97;9.37;;;;;;;;;;2075983;28;20176;-57
2021/01/08 03:09:40;;;;;;;13.17;9.93;;;;;;;;;;2082525;28;20219;-54
2021/01/08 03:10:40;;;;;;;10.63;8.57;;;;;;;;;;2092603;28;20658;-55
2021/01/08 03:11:48;;;;;;;10.53;9.23;;;;;;;;;;2092104;28;20188;-51
2021/01/08 03:12:57;;;;;;;10.53;8.40;;;;;;;;;;2091959;28;20171;-57
2021/01/08 03:13:57;;;;;;;11.23;9.20;;;;;;;;;;2092650;28;20905;-57
2021/01/08 03:14:59;;;;;;;10.07;9.07;;;;;;;;;;2091990;28;20183;-57
2021/01/08 03:15:59;;;;;;;10.67;8.33;;;;;;;;;;2084166;28;20212;-54
2021/01/08 03:17:00;;;;;;;11.20;8.63;;;;;;;;;;2082859;28;20188;-55
2021/01/08 03:18:00;;;;;;;9.63;7.97;;;;;;;;;;2075305;28;20229;-51
2021/01/08 03:19:00;;;;;;;10.13;8.80;;;;;;;;;;2079407;28;20168;-58
2021/01/08 03:20:00;;;;;;;10.23;8.20;;;;;;;;;;2086963;28;20176;-53
2021/01/08 03:21:01;;;;;;;9.03;7.73;;;;;;;;;;2084507;28;20706;-57
2021/01/08 03:22:01;;;;;;;10.60;8.63;;;;;;;;;;2084905;28;20208;-57
2021/01/08 03:23:03;;;;;;;10.60;8.33;;;;;;;;;;2089435;28;20191;-53
2021/01/08 03:24:04;;;;;;;12.40;8.47;;;;;;;;;;2088313;28;20274;-56
2021/01/08 03:25:04;;;;;;;9.33;7.77;;;;;;;;;;2092385;28;20412;-55
2021/01/08 03:26:04;;;;;;;9.33;8.33;;;;;;;;;;2092107;28;20608;-57
2021/01/08 03:27:05;;;;;;;9.10;8.20;;;;;;;;;;2089477;28;20187;-57
2021/01/08 03:28:05;;;;;;;9.03;8.13;;;;;;;;;;2088836;28;20179;-56
2021/01/08 03:29:05;;;;;;;10.50;8.40;;;;;;;;;;2091087;28;20264;-56
2021/01/08 03:30:06;;;;;;;10.43;7.83;;;;;;;;;;2083529;28;20204;-56
2021/01/08 03:31:06;;;;;;;8.70;7.80;;;;;;;;;;2078342;28;20192;-56
2021/01/08 03:32:07;;;;;;;8.50;7.60;;;;;;;;;;2086525;28;20241;-53
2021/01/08 03:33:07;;;;;;;11.67;8.60;;;;;;;;;;2078699;28;20276;-52
2021/01/08 03:34:07;;;;;;;9.93;8.03;;;;;;;;;;2078577;28;20226;-53
2021/01/08 03:35:08;;;;;;;11.50;8.40;;;;;;;;;;2089965;28;20188;-55
2021/01/08 03:36:08;;;;;;;9.20;7.73;;;;;;;;;;2087434;28;20539;-56
2021/01/08 03:37:08;;;;;;;11.37;9.20;;;;;;;;;;2085982;28;20187;-55
2021/01/08 03:38:09;;;;;;;8.70;7.43;;;;;;;;;;2089992;28;20179;-54
2021/01/08 03:39:09;;;;;;;9.40;7.93;;;;;;;;;;2081698;28;20212;-50
2021/01/08 03:40:09;;;;;;;8.50;7.70;;;;;;;;;;2081097;28;20192;-52
2021/01/08 03:41:10;;;;;;;8.83;7.80;;;;;;;;;;2088395;28;20191;-52
2021/01/08 03:42:10;;;;;;;9.73;8.73;;;;;;;;;;2080167;28;20279;-52
2021/01/08 03:43:10;;;;;;;9.23;7.77;;;;;;;;;;2073719;28;20180;-52
2021/01/08 03:44:11;;;;;;;10.80;7.97;;;;;;;;;;2082255;28;20199;-51
2021/01/08 03:45:11;;;;;;;10.40;8.20;;;;;;;;;;2078330;28;20165;-56
2021/01/08 03:46:11;;;;;;;8.20;7.33;;;;;;;;;;2082254;28;20176;-51
2021/01/08 03:47:11;;;;;;;8.60;7.63;;;;;;;;;;2088129;28;20168;-53
2021/01/08 03:48:12;;;;;;;9.77;7.90;;;;;;;;;;2089514;28;20647;-52
2021/01/08 03:49:12;;;;;;;9.10;7.50;;;;;;;;;;2089676;28;20240;-53
2021/01/08 03:50:12;;;;;;;8.80;7.10;;;;;;;;;;2085939;28;20190;-51
2021/01/08 03:51:12;;;;;;;8.70;7.40;;;;;;;;;;2078646;28;20738;-52
2021/01/08 03:52:13;;;;;;;7.60;6.83;;;;;;;;;;2077634;28;20267;-52
2021/01/08 03:53:13;;;;;;;8.40;7.23;;;;;;;;;;2086128;28;20234;-53
2021/01/08 03:54:13;;;;;;;8.40;7.17;;;;;;;;;;2080803;28;20280;-55
2021/01/08 03:55:13;;;;;;;8.97;7.37;;;;;;;;;;2080316;28;20187;-52
2021/01/08 03:56:14;;;;;;;7.97;6.87;;;;;;;;;;2090218;28;20636;-51
2021/01/08 03:57:14;;;;;;;8.53;7.33;;;;;;;;;;2085006;28;20175;-52
2021/01/08 03:58:14;;;;;;;7.77;6.97;;;;;;;;;;2086064;28;20549;-51
2021/01/08 03:59:14;;;;;;;9.90;7.73;;;;;;;;;;2086691;28;20208;-54
2021/01/08 04:00:15;;;;;;;9.60;7.60;;;;;;;;;;2075944;28;20246;-55
2021/01/08 04:01:15;;;;;;;9.07;7.70;;;;;;;;;;2076957;28;20196;-53
2021/01/08 04:02:15;;;;;;;8.83;7.10;;;;;;;;;;2090262;28;20175;-54
2021/01/08 04:03:15;;;;;;;7.30;6.60;;;;;;;;;;2086044;28;20200;-55
2021/01/08 04:04:16;;;;;;;8.43;7.37;;;;;;;;;;2081200;28;20176;-55
2021/01/08 04:05:16;;;;;;;7.90;7.10;;;;;;;;;;2079068;28;20177;-55
2021/01/08 04:06:16;;;;;;;9.90;6.60;;;;;;;;;;2089560;28;20175;-52
2021/01/08 04:07:16;;;;;;;9.47;7.13;;;;;;;;;;2085327;28;20690;-54
2021/01/08 04:08:17;;;;;;;7.50;6.80;;;;;;;;;;2079591;28;20173;-54
2021/01/08 04:09:18;;;;;;;8.57;7.67;;;;;;;;;;2079436;28;20650;-54
2021/01/08 04:10:18;;;;;;;7.83;7.03;;;;;;;;;;2092173;28;20200;-54
2021/01/08 04:11:18;;;;;;;8.60;7.20;;;;;;;;;;2093002;28;20179;-56
2021/01/08 04:12:18;;;;;;;8.63;7.63;;;;;;;;;;2076229;28;20554;-53
2021/01/08 04:13:19;;;;;;;8.17;6.87;;;;;;;;;;2067356;28;20617;-53
2021/01/08 04:14:19;;;;;;;8.77;7.10;;;;;;;;;;2075900;28;20174;-52
2021/01/08 04:15:19;;;;;;;7.97;7.00;;;;;;;;;;2076212;28;20176;-53
2021/01/08 04:16:19;;;;;;;10.23;6.93;;;;;;;;;;2080745;28;20177;-53
2021/01/08 04:17:20;;;;;;;9.00;7.40;;;;;;;;;;2080418;28;20227;-53
2021/01/08 04:18:20;;;;;;;8.33;7.27;;;;;;;;;;2075197;28;20207;-55
2021/01/08 04:19:20;;;;;;;9.87;8.27;;;;;;;;;;2087789;28;20188;-53
2021/01/08 04:20:20;;;;;;;9.30;7.23;;;;;;;;;;2088204;28;20304;-52
2021/01/08 04:21:21;;;;;;;7.87;7.00;;;;;;;;;;2090234;28;20616;-54
2021/01/08 04:22:21;;;;;;;7.17;6.47;;;;;;;;;;2088457;28;20297;-55
2021/01/08 04:23:21;;;;;;;7.73;6.93;;;;;;;;;;2083852;28;20175;-53
2021/01/08 04:24:21;;;;;;;8.70;7.13;;;;;;;;;;2081778;28;20175;-51
2021/01/08 04:25:21;;;;;;;8.17;7.27;;;;;;;;;;2087202;28;20179;-56
2021/01/08 04:26:22;;;;;;;7.67;6.87;;;;;;;;;;2084537;28;20168;-51
2021/01/08 04:27:22;;;;;;;7.80;6.43;;;;;;;;;;2086649;28;20713;-52
2021/01/08 04:28:22;;;;;;;9.27;7.00;;;;;;;;;;2084545;28;20246;-52
2021/01/08 04:29:23;;;;;;;7.27;6.57;;;;;;;;;;2080579;28;20176;-51
2021/01/08 04:30:23;;;;;;;7.87;7.00;;;;;;;;;;2081172;28;20216;-52
2021/01/08 04:31:24;;;;;;;8.23;7.37;;;;;;;;;;2084103;28;20181;-54
2021/01/08 04:32:24;;;;;;;8.33;7.40;;;;;;;;;;2088039;28;20179;-51
2021/01/08 04:33:24;;;;;;;7.47;6.77;;;;;;;;;;2085869;28;20575;-51
2021/01/08 04:34:24;;;;;;;7.90;7.10;;;;;;;;;;2089206;28;20203;-52
2021/01/08 04:35:24;;;;;;;8.43;7.53;;;;;;;;;;2084452;28;20183;-52
2021/01/08 04:36:25;;;;;;;8.17;7.37;;;;;;;;;;2082300;28;20187;-47
2021/01/08 04:37:25;;;;;;;7.37;6.67;;;;;;;;;;2087769;28;20556;-53
2021/01/08 04:38:25;;;;;;;8.17;7.37;;;;;;;;;;2082705;28;20525;-53
2021/01/08 04:39:25;;;;;;;7.67;6.87;;;;;;;;;;2087526;28;20636;-53
2021/01/08 04:40:26;;;;;;;8.47;6.97;;;;;;;;;;2082814;28;20879;-57
2021/01/08 04:41:27;;;;;;;9.53;7.00;;;;;;;;;;2088455;28;20600;-55
2021/01/08 04:42:28;;;;;;;10.23;7.97;;;;;;;;;;2075732;28;20292;-55
2021/01/08 04:43:29;;;;;;;8.53;7.47;;;;;;;;;;2074780;28;20173;-56
2021/01/08 04:44:30;;;;;;;8.67;7.13;;;;;;;;;;2088612;28;20163;-53
2021/01/08 04:45:30;;;;;;;8.60;7.33;;;;;;;;;;2083595;28;20173;-54
2021/01/08 04:46:32;;;;;;;9.10;7.70;;;;;;;;;;2081837;28;20165;-52
2021/01/08 04:47:32;;;;;;;7.73;6.60;;;;;;;;;;2080841;28;20230;-54
2021/01/08 04:48:33;;;;;;;8.00;7.17;;;;;;;;;;2088723;28;20485;-52
2021/01/08 04:49:34;;;;;;;7.67;6.70;;;;;;;;;;2089179;28;20205;-51
2021/01/08 04:50:34;;;;;;;9.27;7.23;;;;;;;;;;2078225;28;20457;-51
2021/01/08 04:51:35;;;;;;;7.50;6.73;;;;;;;;;;2081301;28;20226;-56
2021/01/08 04:52:35;;;;;;;8.00;7.20;;;;;;;;;;2080522;28;20272;-53
2021/01/08 04:53:36;;;;;;;10.53;7.90;;;;;;;;;;2080623;28;20184;-53
2021/01/08 04:54:37;;;;;;;7.67;6.67;;;;;;;;;;2083917;28;20263;-56
2021/01/08 04:55:37;;;;;;;7.97;6.60;;;;;;;;;;2088924;28;20180;-55
2021/01/08 04:56:43;;;;;;;9.43;7.10;;;;;;;;;;2081229;28;20168;-56
2021/01/08 04:57:46;;;;;;;8.03;6.90;;;;;;;;;;2073688;28;20223;-56
2021/01/08 04:58:47;;;;;;;8.50;6.73;;;;;;;;;;2081656;28;20531;-55
2021/01/08 04:59:47;;;;;;;8.07;6.80;;;;;;;;;;2080618;28;20187;-54
2021/01/08 05:00:48;;;;;;;9.20;7.00;;;;;;;;;;2079245;28;20176;-52
2021/01/08 05:01:48;;;;;;;7.40;6.40;;;;;;;;;;2087141;28;20175;-54
2021/01/08 05:02:50;;;;;;;8.30;7.40;;;;;;;;;;2088500;28;20195;-57
2021/01/08 05:03:50;;;;;;;7.73;6.87;;;;;;;;;;2086802;28;20254;-52
2021/01/08 05:04:51;;;;;;;8.13;6.77;;;;;;;;;;2074033;28;20180;-53
2021/01/08 05:05:51;;;;;;;7.77;6.97;;;;;;;;;;2080608;28;20198;-53
2021/01/08 05:06:51;;;;;;;7.83;7.03;;;;;;;;;;2088530;28;20191;-55
2021/01/08 05:07:51;;;;;;;7.87;7.07;;;;;;;;;;2089649;28;20179;-52
2021/01/08 05:08:52;;;;;;;7.33;6.63;;;;;;;;;;2079204;28;20191;-56
2021/01/08 05:09:52;;;;;;;6.77;6.17;;;;;;;;;;2079465;28;20702;-55
2021/01/08 05:10:54;;;;;;;7.23;6.53;;;;;;;;;;2081802;28;20263;-53
2021/01/08 05:11:56;;;;;;;7.67;6.83;;;;;;;;;;2085893;28;20176;-55
2021/01/08 05:12:56;;;;;;;7.87;6.53;;;;;;;;;;2083887;28;20195;-56
2021/01/08 05:13:57;;;;;;;8.33;6.97;;;;;;;;;;2088502;28;20221;-56
2021/01/08 05:14:58;;;;;;;8.33;7.40;;;;;;;;;;2080447;28;20195;-55
2021/01/08 05:16:00;;;;;;;7.03;6.43;;;;;;;;;;2080919;28;20922;-56
2021/01/08 05:17:06;;;;;;;8.13;6.97;;;;;;;;;;2079511;28;20326;-55
2021/01/08 05:18:07;;;;;;;7.67;6.77;;;;;;;;;;2081888;28;20176;-52
2021/01/08 05:19:07;;;;;;;14.30;7.23;;;;;;;;;;2087687;28;20424;-53
2021/01/08 05:20:08;;;;;;;9.27;7.00;;;;;;;;;;2088301;28;20264;-53
2021/01/08 05:21:08;;;;;;;8.13;7.27;;;;;;;;;;2088922;28;20226;-55
2021/01/08 05:22:09;;;;;;;8.30;7.50;;;;;;;;;;2086053;28;20176;-55
2021/01/08 05:23:10;;;;;;;9.00;8.10;;;;;;;;;;2083092;28;20172;-52
2021/01/08 05:24:10;;;;;;;9.53;7.40;;;;;;;;;;2081712;28;20168;-55
2021/01/08 05:25:11;;;;;;;11.13;8.67;;;;;;;;;;2085552;28;20210;-56
2021/01/08 05:26:13;;;;;;;11.43;8.13;;;;;;;;;;2085819;28;20164;-52
2021/01/08 05:27:13;;;;;;;9.43;7.40;;;;;;;;;;2082633;28;20181;-53
2021/01/08 05:28:17;;;;;;;7.47;6.50;;;;;;;;;;2085590;28;20177;-54
2021/01/08 05:29:17;;;;;;;10.00;7.83;;;;;;;;;;2081351;28;20199;-53
2021/01/08 05:30:23;;;;;;;8.00;7.20;;;;;;;;;;2085552;28;20667;-53
2021/01/08 05:31:24;;;;;;;8.30;7.40;;;;;;;;;;2078073;28;20566;-56
2021/01/08 05:32:25;;;;;;;7.70;6.90;;;;;;;;;;2077900;28;20204;-54
2021/01/08 05:33:25;;;;;;;7.60;6.87;;;;;;;;;;2083594;28;21022;-56
2021/01/08 05:34:26;;;;;;;8.90;7.63;;;;;;;;;;2084619;28;20175;-55
2021/01/08 05:35:28;;;;;;;9.03;8.13;;;;;;;;;;2087865;28;20198;-55
2021/01/08 05:36:29;;;;;;;8.87;7.10;;;;;;;;;;2085610;28;20179;-55
2021/01/08 05:37:30;;;;;;;9.20;7.70;;;;;;;;;;2082054;28;20264;-54
2021/01/08 05:38:31;;;;;;;11.93;7.60;;;;;;;;;;2081994;28;20176;-56
2021/01/08 05:39:31;;;;;;;8.30;7.27;;;;;;;;;;2088455;28;20179;-52
2021/01/08 05:40:31;;;;;;;8.43;7.23;;;;;;;;;;2075808;28;20227;-53
2021/01/08 05:41:32;;;;;;;8.50;7.63;;;;;;;;;;2079955;28;20702;-53
2021/01/08 05:42:33;;;;;;;9.20;7.60;;;;;;;;;;2084695;28;20581;-56
2021/01/08 05:43:33;;;;;;;9.30;8.30;;;;;;;;;;2089626;28;20176;-54
2021/01/08 05:44:34;;;;;;;11.13;8.57;;;;;;;;;;2084005;28;20184;-56
2021/01/08 05:45:35;;;;;;;10.77;9.27;;;;;;;;;;2089641;28;20199;-53
2021/01/08 05:46:37;;;;;;;9.60;8.47;;;;;;;;;;2085264;28;20679;-54
2021/01/08 05:47:37;;;;;;;10.17;8.50;;;;;;;;;;2087331;28;20169;-57
2021/01/08 05:48:39;;;;;;;11.67;8.33;;;;;;;;;;2084937;28;20215;-55
2021/01/08 05:49:39;;;;;;;10.47;9.10;;;;;;;;;;2092388;28;20541;-54
2021/01/08 05:50:40;;;;;;;12.67;9.77;;;;;;;;;;2083258;28;20200;-57
2021/01/08 05:51:41;;;;;;;11.20;9.47;;;;;;;;;;2082424;28;20176;-56
2021/01/08 05:52:42;;;;;;;11.53;9.70;;;;;;;;;;2082347;28;20176;-56
2021/01/08 05:53:43;;;;;;;12.03;9.57;;;;;;;;;;2075534;28;20208;-56
2021/01/08 05:54:44;;;;;;;12.10;8.73;;;;;;;;;;2089996;28;20770;-53
2021/01/08 05:55:44;;;;;;;11.77;9.00;;;;;;;;;;2084315;28;20183;-53
2021/01/08 05:56:45;;;;;;;12.27;8.97;;;;;;;;;;2081851;28;20262;-56
2021/01/08 05:57:45;;;;;;;10.57;8.93;;;;;;;;;;2084284;28;20546;-53
2021/01/08 05:58:46;;;;;;;10.70;8.47;;;;;;;;;;2091200;28;20203;-55
2021/01/08 05:59:51;;;;;;;10.73;8.47;;;;;;;;;;2088065;28;20168;-53